sensor_id;sensor_type;location;lat;lon;timestamp;P1;durP1;ratioP1;P2;durP2;ratioP2
19329;SDS011;9799;48.214;16.388;2023-07-29T00:02:27;3.85;;;3.17;;
19329;SDS011;9799;48.214;16.388;2023-07-29T00:05:50;4.35;;;3.38;;
19329;SDS011;9799;48.214;16.388;2023-07-29T00:09:11;3.65;;;3.30;;
19329;SDS011;9799;48.214;16.388;2023-07-29T00:12:33;3.70;;;3.40;;
19329;SDS011;9799;48.214;16.388;2023-07-29T00:15:55;4.15;;;3.35;;
19329;SDS011;9799;48.214;16.388;2023-07-29T00:19:16;3.50;;;3.20;;
19329;SDS011;9799;48.214;16.388;2023-07-29T00:22:39;4.07;;;3.45;;
19329;SDS011;9799;48.214;16.388;2023-07-29T00:26:00;5.40;;;3.78;;
19329;SDS011;9799;48.214;16.388;2023-07-29T00:29:21;5.15;;;4.00;;
19329;SDS011;9799;48.214;16.388;2023-07-29T00:32:44;7.45;;;3.67;;
19329;SDS011;9799;48.214;16.388;2023-07-29T00:36:05;5.55;;;3.97;;
19329;SDS011;9799;48.214;16.388;2023-07-29T00:39:26;4.28;;;3.60;;
19329;SDS011;9799;48.214;16.388;2023-07-29T00:42:47;4.53;;;4.07;;
19329;SDS011;9799;48.214;16.388;2023-07-29T00:46:09;3.58;;;3.28;;
19329;SDS011;9799;48.214;16.388;2023-07-29T00:49:33;3.35;;;3.05;;
19329;SDS011;9799;48.214;16.388;2023-07-29T00:52:55;4.25;;;3.83;;
19329;SDS011;9799;48.214;16.388;2023-07-29T00:56:17;4.20;;;3.80;;
19329;SDS011;9799;48.214;16.388;2023-07-29T00:59:39;4.88;;;3.28;;
19329;SDS011;9799;48.214;16.388;2023-07-29T01:03:01;5.05;;;3.67;;
19329;SDS011;9799;48.214;16.388;2023-07-29T01:06:26;4.00;;;3.65;;
19329;SDS011;9799;48.214;16.388;2023-07-29T01:09:55;5.63;;;3.72;;
19329;SDS011;9799;48.214;16.388;2023-07-29T01:13:22;3.95;;;3.45;;
19329;SDS011;9799;48.214;16.388;2023-07-29T01:16:50;3.70;;;3.40;;
19329;SDS011;9799;48.214;16.388;2023-07-29T01:20:14;3.90;;;3.60;;
19329;SDS011;9799;48.214;16.388;2023-07-29T01:23:37;5.38;;;3.90;;
19329;SDS011;9799;48.214;16.388;2023-07-29T01:26:59;3.17;;;2.88;;
19329;SDS011;9799;48.214;16.388;2023-07-29T01:30:24;5.20;;;4.28;;
19329;SDS011;9799;48.214;16.388;2023-07-29T01:33:57;3.75;;;3.20;;
19329;SDS011;9799;48.214;16.388;2023-07-29T01:37:23;5.43;;;3.78;;
19329;SDS011;9799;48.214;16.388;2023-07-29T01:40:49;3.63;;;3.25;;
19329;SDS011;9799;48.214;16.388;2023-07-29T01:44:16;4.78;;;3.95;;
19329;SDS011;9799;48.214;16.388;2023-07-29T01:47:41;3.95;;;3.60;;
19329;SDS011;9799;48.214;16.388;2023-07-29T01:51:06;4.50;;;3.88;;
19329;SDS011;9799;48.214;16.388;2023-07-29T01:54:38;5.40;;;4.25;;
19329;SDS011;9799;48.214;16.388;2023-07-29T01:58:01;4.00;;;3.60;;
19329;SDS011;9799;48.214;16.388;2023-07-29T02:01:22;5.50;;;3.60;;
19329;SDS011;9799;48.214;16.388;2023-07-29T02:04:43;4.63;;;4.10;;
19329;SDS011;9799;48.214;16.388;2023-07-29T02:08:10;4.03;;;3.63;;
19329;SDS011;9799;48.214;16.388;2023-07-29T02:11:34;4.60;;;3.92;;
19329;SDS011;9799;48.214;16.388;2023-07-29T02:14:57;3.90;;;3.30;;
19329;SDS011;9799;48.214;16.388;2023-07-29T02:18:18;3.22;;;2.92;;
19329;SDS011;9799;48.214;16.388;2023-07-29T02:21:39;3.72;;;3.42;;
19329;SDS011;9799;48.214;16.388;2023-07-29T02:25:00;3.58;;;2.78;;
19329;SDS011;9799;48.214;16.388;2023-07-29T02:28:22;4.00;;;3.53;;
19329;SDS011;9799;48.214;16.388;2023-07-29T02:31:44;3.30;;;3.00;;
19329;SDS011;9799;48.214;16.388;2023-07-29T02:35:05;2.97;;;2.70;;
19329;SDS011;9799;48.214;16.388;2023-07-29T02:38:27;2.97;;;2.70;;
19329;SDS011;9799;48.214;16.388;2023-07-29T02:41:49;3.35;;;3.03;;
19329;SDS011;9799;48.214;16.388;2023-07-29T02:45:10;3.33;;;2.70;;
19329;SDS011;9799;48.214;16.388;2023-07-29T02:48:35;3.13;;;2.80;;
19329;SDS011;9799;48.214;16.388;2023-07-29T02:51:59;3.88;;;2.95;;
19329;SDS011;9799;48.214;16.388;2023-07-29T02:55:23;3.58;;;3.03;;
19329;SDS011;9799;48.214;16.388;2023-07-29T02:58:47;3.03;;;2.72;;
19329;SDS011;9799;48.214;16.388;2023-07-29T03:02:11;2.92;;;2.65;;
19329;SDS011;9799;48.214;16.388;2023-07-29T03:05:35;2.30;;;2.10;;
19329;SDS011;9799;48.214;16.388;2023-07-29T03:08:57;2.90;;;2.38;;
19329;SDS011;9799;48.214;16.388;2023-07-29T03:12:19;4.53;;;2.72;;
19329;SDS011;9799;48.214;16.388;2023-07-29T03:15:41;3.13;;;2.58;;
19329;SDS011;9799;48.214;16.388;2023-07-29T03:19:02;2.33;;;2.10;;
19329;SDS011;9799;48.214;16.388;2023-07-29T03:22:25;3.03;;;2.50;;
19329;SDS011;9799;48.214;16.388;2023-07-29T03:25:48;2.78;;;2.42;;
19329;SDS011;9799;48.214;16.388;2023-07-29T03:29:10;3.17;;;2.40;;
19329;SDS011;9799;48.214;16.388;2023-07-29T03:32:34;2.67;;;2.47;;
19329;SDS011;9799;48.214;16.388;2023-07-29T03:35:56;3.42;;;2.13;;
19329;SDS011;9799;48.214;16.388;2023-07-29T03:39:18;2.90;;;2.50;;
19329;SDS011;9799;48.214;16.388;2023-07-29T03:42:39;2.75;;;2.30;;
19329;SDS011;9799;48.214;16.388;2023-07-29T03:46:00;4.95;;;2.50;;
19329;SDS011;9799;48.214;16.388;2023-07-29T03:49:23;2.10;;;1.90;;
19329;SDS011;9799;48.214;16.388;2023-07-29T03:52:44;2.88;;;2.28;;
19329;SDS011;9799;48.214;16.388;2023-07-29T03:56:07;3.10;;;2.80;;
19329;SDS011;9799;48.214;16.388;2023-07-29T03:59:28;2.40;;;2.20;;
19329;SDS011;9799;48.214;16.388;2023-07-29T04:02:50;3.00;;;2.33;;
19329;SDS011;9799;48.214;16.388;2023-07-29T04:06:11;2.83;;;2.33;;
19329;SDS011;9799;48.214;16.388;2023-07-29T04:09:32;2.95;;;2.45;;
19329;SDS011;9799;48.214;16.388;2023-07-29T04:12:55;3.00;;;2.70;;
19329;SDS011;9799;48.214;16.388;2023-07-29T04:16:16;2.67;;;2.33;;
19329;SDS011;9799;48.214;16.388;2023-07-29T04:19:37;2.53;;;2.30;;
19329;SDS011;9799;48.214;16.388;2023-07-29T04:22:59;4.20;;;2.70;;
19329;SDS011;9799;48.214;16.388;2023-07-29T04:26:20;2.70;;;2.45;;
19329;SDS011;9799;48.214;16.388;2023-07-29T04:29:42;3.40;;;2.58;;
19329;SDS011;9799;48.214;16.388;2023-07-29T04:33:03;2.70;;;2.13;;
19329;SDS011;9799;48.214;16.388;2023-07-29T04:36:24;4.93;;;2.60;;
19329;SDS011;9799;48.214;16.388;2023-07-29T04:39:46;2.60;;;2.40;;
19329;SDS011;9799;48.214;16.388;2023-07-29T04:43:07;4.22;;;2.55;;
19329;SDS011;9799;48.214;16.388;2023-07-29T04:46:29;3.10;;;2.53;;
19329;SDS011;9799;48.214;16.388;2023-07-29T04:49:51;3.55;;;2.70;;
19329;SDS011;9799;48.214;16.388;2023-07-29T04:53:12;4.25;;;2.67;;
19329;SDS011;9799;48.214;16.388;2023-07-29T04:56:33;2.78;;;2.25;;
19329;SDS011;9799;48.214;16.388;2023-07-29T04:59:54;3.03;;;2.72;;
19329;SDS011;9799;48.214;16.388;2023-07-29T05:03:20;3.88;;;2.58;;
19329;SDS011;9799;48.214;16.388;2023-07-29T05:06:41;3.53;;;2.85;;
19329;SDS011;9799;48.214;16.388;2023-07-29T05:10:03;2.90;;;2.58;;
19329;SDS011;9799;48.214;16.388;2023-07-29T05:13:24;2.53;;;2.33;;
19329;SDS011;9799;48.214;16.388;2023-07-29T05:16:45;3.28;;;2.45;;
19329;SDS011;9799;48.214;16.388;2023-07-29T05:20:09;2.90;;;2.60;;
19329;SDS011;9799;48.214;16.388;2023-07-29T05:23:31;3.25;;;2.55;;
19329;SDS011;9799;48.214;16.388;2023-07-29T05:26:52;3.72;;;2.72;;
19329;SDS011;9799;48.214;16.388;2023-07-29T05:30:13;2.53;;;2.33;;
19329;SDS011;9799;48.214;16.388;2023-07-29T05:33:34;2.70;;;2.45;;
19329;SDS011;9799;48.214;16.388;2023-07-29T05:36:57;3.20;;;2.55;;
19329;SDS011;9799;48.214;16.388;2023-07-29T05:40:18;2.10;;;1.90;;
19329;SDS011;9799;48.214;16.388;2023-07-29T05:43:40;2.55;;;2.33;;
19329;SDS011;9799;48.214;16.388;2023-07-29T05:47:02;3.42;;;1.95;;
19329;SDS011;9799;48.214;16.388;2023-07-29T05:50:24;2.53;;;2.10;;
19329;SDS011;9799;48.214;16.388;2023-07-29T05:53:46;2.70;;;2.33;;
19329;SDS011;9799;48.214;16.388;2023-07-29T05:57:07;3.20;;;2.20;;
19329;SDS011;9799;48.214;16.388;2023-07-29T06:00:29;3.42;;;2.53;;
19329;SDS011;9799;48.214;16.388;2023-07-29T06:03:50;3.25;;;2.17;;
19329;SDS011;9799;48.214;16.388;2023-07-29T06:07:11;4.47;;;2.00;;
19329;SDS011;9799;48.214;16.388;2023-07-29T06:10:34;2.67;;;2.38;;
19329;SDS011;9799;48.214;16.388;2023-07-29T06:13:55;2.30;;;2.10;;
19329;SDS011;9799;48.214;16.388;2023-07-29T06:17:16;2.58;;;1.77;;
19329;SDS011;9799;48.214;16.388;2023-07-29T06:20:37;2.20;;;2.00;;
19329;SDS011;9799;48.214;16.388;2023-07-29T06:23:58;2.10;;;1.90;;
19329;SDS011;9799;48.214;16.388;2023-07-29T06:27:21;1.88;;;1.75;;
19329;SDS011;9799;48.214;16.388;2023-07-29T06:30:44;2.83;;;2.00;;
19329;SDS011;9799;48.214;16.388;2023-07-29T06:34:05;2.33;;;1.90;;
19329;SDS011;9799;48.214;16.388;2023-07-29T06:37:26;2.72;;;2.10;;
19329;SDS011;9799;48.214;16.388;2023-07-29T06:40:47;2.25;;;2.05;;
19329;SDS011;9799;48.214;16.388;2023-07-29T06:44:10;2.05;;;1.67;;
19329;SDS011;9799;48.214;16.388;2023-07-29T06:47:31;2.33;;;2.13;;
19329;SDS011;9799;48.214;16.388;2023-07-29T06:50:52;2.17;;;1.80;;
19329;SDS011;9799;48.214;16.388;2023-07-29T06:54:15;2.20;;;1.77;;
19329;SDS011;9799;48.214;16.388;2023-07-29T06:57:37;2.15;;;1.95;;
19329;SDS011;9799;48.214;16.388;2023-07-29T07:00:59;2.35;;;2.00;;
19329;SDS011;9799;48.214;16.388;2023-07-29T07:04:22;1.67;;;1.52;;
19329;SDS011;9799;48.214;16.388;2023-07-29T07:07:44;3.17;;;1.60;;
19329;SDS011;9799;48.214;16.388;2023-07-29T07:11:05;1.85;;;1.50;;
19329;SDS011;9799;48.214;16.388;2023-07-29T07:14:26;2.25;;;2.00;;
19329;SDS011;9799;48.214;16.388;2023-07-29T07:17:49;2.03;;;1.80;;
19329;SDS011;9799;48.214;16.388;2023-07-29T07:21:11;1.95;;;1.42;;
19329;SDS011;9799;48.214;16.388;2023-07-29T07:24:32;2.22;;;2.03;;
19329;SDS011;9799;48.214;16.388;2023-07-29T07:27:53;1.75;;;1.65;;
19329;SDS011;9799;48.214;16.388;2023-07-29T07:31:14;2.10;;;1.90;;
19329;SDS011;9799;48.214;16.388;2023-07-29T07:34:37;2.63;;;1.70;;
19329;SDS011;9799;48.214;16.388;2023-07-29T07:37:59;9.30;;;2.10;;
19329;SDS011;9799;48.214;16.388;2023-07-29T07:41:22;2.30;;;1.50;;
19329;SDS011;9799;48.214;16.388;2023-07-29T07:44:44;2.10;;;1.90;;
19329;SDS011;9799;48.214;16.388;2023-07-29T07:48:05;1.75;;;1.65;;
19329;SDS011;9799;48.214;16.388;2023-07-29T07:51:30;1.63;;;1.42;;
19329;SDS011;9799;48.214;16.388;2023-07-29T07:54:52;1.90;;;1.73;;
19329;SDS011;9799;48.214;16.388;2023-07-29T07:58:13;2.80;;;2.03;;
19329;SDS011;9799;48.214;16.388;2023-07-29T08:01:34;1.58;;;1.48;;
19329;SDS011;9799;48.214;16.388;2023-07-29T08:04:56;1.88;;;1.73;;
19329;SDS011;9799;48.214;16.388;2023-07-29T08:08:18;2.75;;;1.63;;
19329;SDS011;9799;48.214;16.388;2023-07-29T08:11:42;1.65;;;1.25;;
19329;SDS011;9799;48.214;16.388;2023-07-29T08:15:04;1.65;;;1.45;;
19329;SDS011;9799;48.214;16.388;2023-07-29T08:18:26;2.72;;;2.45;;
19329;SDS011;9799;48.214;16.388;2023-07-29T08:21:48;2.63;;;1.85;;
19329;SDS011;9799;48.214;16.388;2023-07-29T08:25:13;2.40;;;1.90;;
19329;SDS011;9799;48.214;16.388;2023-07-29T08:28:34;1.85;;;1.48;;
19329;SDS011;9799;48.214;16.388;2023-07-29T08:31:57;1.50;;;1.40;;
19329;SDS011;9799;48.214;16.388;2023-07-29T08:35:18;1.52;;;1.27;;
19329;SDS011;9799;48.214;16.388;2023-07-29T08:38:39;1.52;;;1.42;;
19329;SDS011;9799;48.214;16.388;2023-07-29T08:42:03;1.45;;;1.35;;
19329;SDS011;9799;48.214;16.388;2023-07-29T08:45:29;2.25;;;1.63;;
19329;SDS011;9799;48.214;16.388;2023-07-29T08:48:54;1.58;;;1.48;;
19329;SDS011;9799;48.214;16.388;2023-07-29T08:52:16;1.30;;;1.20;;
19329;SDS011;9799;48.214;16.388;2023-07-29T08:55:38;2.17;;;1.13;;
19329;SDS011;9799;48.214;16.388;2023-07-29T08:59:01;1.48;;;1.00;;
19329;SDS011;9799;48.214;16.388;2023-07-29T09:02:24;1.48;;;1.38;;
19329;SDS011;9799;48.214;16.388;2023-07-29T09:05:45;1.70;;;1.42;;
19329;SDS011;9799;48.214;16.388;2023-07-29T09:09:07;1.80;;;1.40;;
19329;SDS011;9799;48.214;16.388;2023-07-29T09:12:29;2.88;;;1.20;;
19329;SDS011;9799;48.214;16.388;2023-07-29T09:15:53;2.15;;;1.75;;
19329;SDS011;9799;48.214;16.388;2023-07-29T09:19:15;1.85;;;1.67;;
19329;SDS011;9799;48.214;16.388;2023-07-29T09:22:36;3.67;;;1.30;;
19329;SDS011;9799;48.214;16.388;2023-07-29T09:26:00;1.50;;;1.40;;
19329;SDS011;9799;48.214;16.388;2023-07-29T09:29:22;1.70;;;1.40;;
19329;SDS011;9799;48.214;16.388;2023-07-29T09:32:45;1.60;;;1.15;;
19329;SDS011;9799;48.214;16.388;2023-07-29T09:36:08;2.10;;;1.20;;
19329;SDS011;9799;48.214;16.388;2023-07-29T09:39:33;1.67;;;1.58;;
19329;SDS011;9799;48.214;16.388;2023-07-29T09:42:54;4.97;;;4.47;;
19329;SDS011;9799;48.214;16.388;2023-07-29T09:46:16;1.92;;;1.70;;
19329;SDS011;9799;48.214;16.388;2023-07-29T09:49:38;1.30;;;1.20;;
19329;SDS011;9799;48.214;16.388;2023-07-29T09:53:01;1.30;;;1.20;;
19329;SDS011;9799;48.214;16.388;2023-07-29T09:56:26;1.92;;;1.42;;
19329;SDS011;9799;48.214;16.388;2023-07-29T09:59:53;4.28;;;1.48;;
19329;SDS011;9799;48.214;16.388;2023-07-29T10:03:14;1.98;;;1.70;;
19329;SDS011;9799;48.214;16.388;2023-07-29T10:06:37;1.63;;;1.52;;
19329;SDS011;9799;48.214;16.388;2023-07-29T10:09:59;1.52;;;1.17;;
19329;SDS011;9799;48.214;16.388;2023-07-29T10:13:22;2.22;;;1.35;;
19329;SDS011;9799;48.214;16.388;2023-07-29T10:16:45;1.75;;;1.50;;
19329;SDS011;9799;48.214;16.388;2023-07-29T10:20:08;1.52;;;1.40;;
19329;SDS011;9799;48.214;16.388;2023-07-29T10:23:34;1.50;;;1.30;;
19329;SDS011;9799;48.214;16.388;2023-07-29T10:26:59;2.95;;;1.40;;
19329;SDS011;9799;48.214;16.388;2023-07-29T10:30:22;2.72;;;1.58;;
19329;SDS011;9799;48.214;16.388;2023-07-29T10:33:45;1.45;;;1.35;;
19329;SDS011;9799;48.214;16.388;2023-07-29T10:37:07;1.50;;;1.33;;
19329;SDS011;9799;48.214;16.388;2023-07-29T10:40:44;1.35;;;1.17;;
19329;SDS011;9799;48.214;16.388;2023-07-29T10:44:06;1.85;;;1.70;;
19329;SDS011;9799;48.214;16.388;2023-07-29T10:52:00;4.18;;;2.92;;
19329;SDS011;9799;48.214;16.388;2023-07-29T10:55:25;4.20;;;3.15;;
19329;SDS011;9799;48.214;16.388;2023-07-29T10:58:50;2.13;;;1.58;;
19329;SDS011;9799;48.214;16.388;2023-07-29T11:02:12;3.80;;;2.08;;
19329;SDS011;9799;48.214;16.388;2023-07-29T11:05:42;1.50;;;1.40;;
19329;SDS011;9799;48.214;16.388;2023-07-29T11:12:59;1.50;;;1.40;;
19329;SDS011;9799;48.214;16.388;2023-07-29T11:16:22;1.40;;;1.30;;
19329;SDS011;9799;48.214;16.388;2023-07-29T11:19:44;3.22;;;1.38;;
19329;SDS011;9799;48.214;16.388;2023-07-29T11:23:06;1.30;;;1.20;;
19329;SDS011;9799;48.214;16.388;2023-07-29T11:26:27;1.52;;;1.42;;
19329;SDS011;9799;48.214;16.388;2023-07-29T11:29:49;1.70;;;1.10;;
19329;SDS011;9799;48.214;16.388;2023-07-29T11:33:11;1.33;;;1.10;;
19329;SDS011;9799;48.214;16.388;2023-07-29T11:36:33;1.30;;;1.20;;
19329;SDS011;9799;48.214;16.388;2023-07-29T11:39:54;1.40;;;1.30;;
19329;SDS011;9799;48.214;16.388;2023-07-29T11:43:17;1.80;;;1.50;;
19329;SDS011;9799;48.214;16.388;2023-07-29T11:46:39;1.40;;;1.10;;
19329;SDS011;9799;48.214;16.388;2023-07-29T11:50:02;1.88;;;1.67;;
19329;SDS011;9799;48.214;16.388;2023-07-29T11:53:25;1.60;;;1.50;;
19329;SDS011;9799;48.214;16.388;2023-07-29T11:56:48;1.50;;;1.35;;
19329;SDS011;9799;48.214;16.388;2023-07-29T12:00:11;1.92;;;1.60;;
19329;SDS011;9799;48.214;16.388;2023-07-29T12:03:34;1.75;;;1.35;;
19329;SDS011;9799;48.214;16.388;2023-07-29T12:06:56;1.17;;;1.08;;
19329;SDS011;9799;48.214;16.388;2023-07-29T12:10:19;2.25;;;1.48;;
19329;SDS011;9799;48.214;16.388;2023-07-29T12:13:41;1.77;;;1.40;;
19329;SDS011;9799;48.214;16.388;2023-07-29T12:17:03;2.67;;;1.40;;
19329;SDS011;9799;48.214;16.388;2023-07-29T12:20:25;1.95;;;1.60;;
19329;SDS011;9799;48.214;16.388;2023-07-29T12:23:48;1.60;;;1.50;;
19329;SDS011;9799;48.214;16.388;2023-07-29T12:27:11;2.00;;;1.70;;
19329;SDS011;9799;48.214;16.388;2023-07-29T12:30:33;2.08;;;1.73;;
19329;SDS011;9799;48.214;16.388;2023-07-29T12:33:55;1.60;;;1.50;;
19329;SDS011;9799;48.214;16.388;2023-07-29T12:37:17;2.40;;;2.10;;
19329;SDS011;9799;48.214;16.388;2023-07-29T12:40:39;2.05;;;1.85;;
19329;SDS011;9799;48.214;16.388;2023-07-29T12:44:01;2.20;;;2.00;;
19329;SDS011;9799;48.214;16.388;2023-07-29T12:47:22;2.38;;;2.17;;
19329;SDS011;9799;48.214;16.388;2023-07-29T12:50:44;2.03;;;1.80;;
19329;SDS011;9799;48.214;16.388;2023-07-29T12:54:05;2.72;;;2.10;;
19329;SDS011;9799;48.214;16.388;2023-07-29T12:57:28;2.50;;;2.25;;
19329;SDS011;9799;48.214;16.388;2023-07-29T13:00:49;2.45;;;2.25;;
19329;SDS011;9799;48.214;16.388;2023-07-29T13:04:10;2.63;;;2.35;;
19329;SDS011;9799;48.214;16.388;2023-07-29T13:07:31;2.97;;;2.08;;
19329;SDS011;9799;48.214;16.388;2023-07-29T13:10:53;3.53;;;2.15;;
19329;SDS011;9799;48.214;16.388;2023-07-29T13:14:15;2.75;;;2.53;;
19329;SDS011;9799;48.214;16.388;2023-07-29T13:17:36;2.70;;;2.03;;
19329;SDS011;9799;48.214;16.388;2023-07-29T13:20:58;2.22;;;2.03;;
19329;SDS011;9799;48.214;16.388;2023-07-29T13:24:20;5.13;;;1.83;;
19329;SDS011;9799;48.214;16.388;2023-07-29T13:27:41;4.35;;;2.00;;
19329;SDS011;9799;48.214;16.388;2023-07-29T13:31:04;1.75;;;1.65;;
19329;SDS011;9799;48.214;16.388;2023-07-29T13:34:25;1.70;;;1.52;;
19329;SDS011;9799;48.214;16.388;2023-07-29T13:37:46;4.13;;;1.42;;
19329;SDS011;9799;48.214;16.388;2023-07-29T13:41:07;1.63;;;1.52;;
19329;SDS011;9799;48.214;16.388;2023-07-29T13:44:29;1.63;;;1.52;;
19329;SDS011;9799;48.214;16.388;2023-07-29T13:47:52;1.75;;;1.65;;
19329;SDS011;9799;48.214;16.388;2023-07-29T13:51:13;2.03;;;1.63;;
19329;SDS011;9799;48.214;16.388;2023-07-29T13:54:40;1.33;;;1.23;;
19329;SDS011;9799;48.214;16.388;2023-07-29T13:58:01;1.92;;;1.73;;
19329;SDS011;9799;48.214;16.388;2023-07-29T14:01:22;2.50;;;1.80;;
19329;SDS011;9799;48.214;16.388;2023-07-29T14:04:45;1.67;;;1.58;;
19329;SDS011;9799;48.214;16.388;2023-07-29T14:08:06;1.88;;;1.50;;
19329;SDS011;9799;48.214;16.388;2023-07-29T14:11:30;2.25;;;1.88;;
19329;SDS011;9799;48.214;16.388;2023-07-29T14:14:53;2.35;;;1.90;;
19329;SDS011;9799;48.214;16.388;2023-07-29T14:18:18;2.40;;;2.20;;
19329;SDS011;9799;48.214;16.388;2023-07-29T14:21:41;1.80;;;1.70;;
19329;SDS011;9799;48.214;16.388;2023-07-29T14:25:02;1.90;;;1.80;;
19329;SDS011;9799;48.214;16.388;2023-07-29T14:28:24;2.90;;;1.75;;
19329;SDS011;9799;48.214;16.388;2023-07-29T14:31:45;3.35;;;1.90;;
19329;SDS011;9799;48.214;16.388;2023-07-29T14:35:06;2.40;;;1.88;;
19329;SDS011;9799;48.214;16.388;2023-07-29T14:38:29;1.65;;;1.55;;
19329;SDS011;9799;48.214;16.388;2023-07-29T14:41:50;3.58;;;2.00;;
19329;SDS011;9799;48.214;16.388;2023-07-29T14:45:12;2.53;;;1.75;;
19329;SDS011;9799;48.214;16.388;2023-07-29T14:48:33;2.08;;;1.88;;
19329;SDS011;9799;48.214;16.388;2023-07-29T14:51:54;2.20;;;1.98;;
19329;SDS011;9799;48.214;16.388;2023-07-29T14:55:17;2.72;;;2.53;;
19329;SDS011;9799;48.214;16.388;2023-07-29T14:58:38;2.40;;;2.15;;
19329;SDS011;9799;48.214;16.388;2023-07-29T15:01:59;2.20;;;2.00;;
19329;SDS011;9799;48.214;16.388;2023-07-29T15:05:21;3.10;;;2.35;;
19329;SDS011;9799;48.214;16.388;2023-07-29T15:08:42;2.05;;;1.85;;
19329;SDS011;9799;48.214;16.388;2023-07-29T15:12:05;2.30;;;2.10;;
19329;SDS011;9799;48.214;16.388;2023-07-29T15:15:27;2.55;;;2.33;;
19329;SDS011;9799;48.214;16.388;2023-07-29T15:18:49;1.98;;;1.85;;
19329;SDS011;9799;48.214;16.388;2023-07-29T15:22:10;2.85;;;2.38;;
19329;SDS011;9799;48.214;16.388;2023-07-29T15:25:31;3.05;;;2.72;;
19329;SDS011;9799;48.214;16.388;2023-07-29T15:28:53;2.78;;;2.58;;
19329;SDS011;9799;48.214;16.388;2023-07-29T15:32:15;2.90;;;2.67;;
19329;SDS011;9799;48.214;16.388;2023-07-29T15:35:36;3.67;;;3.00;;
19329;SDS011;9799;48.214;16.388;2023-07-29T15:38:58;3.42;;;3.00;;
19329;SDS011;9799;48.214;16.388;2023-07-29T15:42:19;2.80;;;2.60;;
19329;SDS011;9799;48.214;16.388;2023-07-29T15:45:42;2.58;;;2.38;;
19329;SDS011;9799;48.214;16.388;2023-07-29T15:49:04;2.92;;;2.55;;
19329;SDS011;9799;48.214;16.388;2023-07-29T15:52:26;4.03;;;2.70;;
19329;SDS011;9799;48.214;16.388;2023-07-29T15:55:49;5.03;;;2.72;;
19329;SDS011;9799;48.214;16.388;2023-07-29T15:59:11;2.83;;;2.63;;
19329;SDS011;9799;48.214;16.388;2023-07-29T16:02:33;3.03;;;2.45;;
19329;SDS011;9799;48.214;16.388;2023-07-29T16:05:55;3.35;;;2.35;;
19329;SDS011;9799;48.214;16.388;2023-07-29T16:09:16;2.97;;;2.63;;
19329;SDS011;9799;48.214;16.388;2023-07-29T16:12:40;2.55;;;2.35;;
19329;SDS011;9799;48.214;16.388;2023-07-29T16:16:01;2.85;;;2.65;;
19329;SDS011;9799;48.214;16.388;2023-07-29T16:19:24;4.20;;;2.97;;
19329;SDS011;9799;48.214;16.388;2023-07-29T16:22:47;3.05;;;2.75;;
19329;SDS011;9799;48.214;16.388;2023-07-29T16:26:09;3.80;;;2.67;;
19329;SDS011;9799;48.214;16.388;2023-07-29T16:29:31;2.63;;;2.40;;
19329;SDS011;9799;48.214;16.388;2023-07-29T16:32:53;2.75;;;2.55;;
19329;SDS011;9799;48.214;16.388;2023-07-29T16:36:15;2.88;;;2.25;;
19329;SDS011;9799;48.214;16.388;2023-07-29T16:39:36;3.25;;;2.95;;
19329;SDS011;9799;48.214;16.388;2023-07-29T16:42:57;3.40;;;2.58;;
19329;SDS011;9799;48.214;16.388;2023-07-29T16:46:19;2.83;;;2.63;;
19329;SDS011;9799;48.214;16.388;2023-07-29T16:49:40;2.70;;;2.50;;
19329;SDS011;9799;48.214;16.388;2023-07-29T16:53:03;2.28;;;2.08;;
19329;SDS011;9799;48.214;16.388;2023-07-29T16:56:25;2.65;;;2.22;;
19329;SDS011;9799;48.214;16.388;2023-07-29T16:59:46;2.83;;;2.40;;
19329;SDS011;9799;48.214;16.388;2023-07-29T17:03:07;4.72;;;2.67;;
19329;SDS011;9799;48.214;16.388;2023-07-29T17:06:28;3.08;;;2.78;;
19329;SDS011;9799;48.214;16.388;2023-07-29T17:09:51;3.13;;;2.58;;
19329;SDS011;9799;48.214;16.388;2023-07-29T17:13:12;3.63;;;2.67;;
19329;SDS011;9799;48.214;16.388;2023-07-29T17:16:33;2.53;;;2.30;;
19329;SDS011;9799;48.214;16.388;2023-07-29T17:19:55;2.75;;;2.50;;
19329;SDS011;9799;48.214;16.388;2023-07-29T17:23:16;2.85;;;2.60;;
19329;SDS011;9799;48.214;16.388;2023-07-29T17:26:38;2.40;;;2.20;;
19329;SDS011;9799;48.214;16.388;2023-07-29T17:29:59;4.60;;;2.80;;
19329;SDS011;9799;48.214;16.388;2023-07-29T17:33:21;4.10;;;2.35;;
19329;SDS011;9799;48.214;16.388;2023-07-29T17:36:42;2.38;;;2.17;;
19329;SDS011;9799;48.214;16.388;2023-07-29T17:40:04;2.70;;;2.22;;
19329;SDS011;9799;48.214;16.388;2023-07-29T17:43:28;3.83;;;2.03;;
19329;SDS011;9799;48.214;16.388;2023-07-29T17:46:49;2.83;;;2.38;;
19329;SDS011;9799;48.214;16.388;2023-07-29T17:50:10;2.60;;;2.40;;
19329;SDS011;9799;48.214;16.388;2023-07-29T17:53:31;3.80;;;2.17;;
19329;SDS011;9799;48.214;16.388;2023-07-29T17:56:52;2.67;;;2.40;;
19329;SDS011;9799;48.214;16.388;2023-07-29T18:00:15;3.25;;;2.10;;
19329;SDS011;9799;48.214;16.388;2023-07-29T18:03:36;2.75;;;2.50;;
19329;SDS011;9799;48.214;16.388;2023-07-29T18:06:58;2.03;;;1.90;;
19329;SDS011;9799;48.214;16.388;2023-07-29T18:10:19;2.30;;;2.10;;
19329;SDS011;9799;48.214;16.388;2023-07-29T18:13:40;2.45;;;2.25;;
19329;SDS011;9799;48.214;16.388;2023-07-29T18:17:02;3.25;;;2.47;;
19329;SDS011;9799;48.214;16.388;2023-07-29T18:20:24;2.45;;;2.25;;
19329;SDS011;9799;48.214;16.388;2023-07-29T18:23:45;3.10;;;2.42;;
19329;SDS011;9799;48.214;16.388;2023-07-29T18:27:07;2.28;;;2.08;;
19329;SDS011;9799;48.214;16.388;2023-07-29T18:30:29;2.30;;;2.10;;
19329;SDS011;9799;48.214;16.388;2023-07-29T18:33:52;5.55;;;4.97;;
19329;SDS011;9799;48.214;16.388;2023-07-29T18:37:13;2.40;;;2.10;;
19329;SDS011;9799;48.214;16.388;2023-07-29T18:40:34;4.20;;;2.92;;
19329;SDS011;9799;48.214;16.388;2023-07-29T18:43:55;2.03;;;1.83;;
19329;SDS011;9799;48.214;16.388;2023-07-29T18:47:17;3.25;;;2.15;;
19329;SDS011;9799;48.214;16.388;2023-07-29T18:50:42;2.20;;;2.00;;
19329;SDS011;9799;48.214;16.388;2023-07-29T18:54:04;2.20;;;2.00;;
19329;SDS011;9799;48.214;16.388;2023-07-29T18:57:26;3.60;;;2.55;;
19329;SDS011;9799;48.214;16.388;2023-07-29T19:00:48;2.30;;;2.10;;
19329;SDS011;9799;48.214;16.388;2023-07-29T19:04:10;2.25;;;2.05;;
19329;SDS011;9799;48.214;16.388;2023-07-29T19:07:34;3.22;;;2.42;;
19329;SDS011;9799;48.214;16.388;2023-07-29T19:10:55;2.83;;;2.50;;
19329;SDS011;9799;48.214;16.388;2023-07-29T19:14:17;5.82;;;2.30;;
19329;SDS011;9799;48.214;16.388;2023-07-29T19:17:40;4.85;;;2.22;;
19329;SDS011;9799;48.214;16.388;2023-07-29T19:21:03;2.25;;;2.05;;
19329;SDS011;9799;48.214;16.388;2023-07-29T19:24:29;2.50;;;2.30;;
19329;SDS011;9799;48.214;16.388;2023-07-29T19:27:51;2.42;;;2.20;;
19329;SDS011;9799;48.214;16.388;2023-07-29T19:31:13;2.50;;;2.22;;
19329;SDS011;9799;48.214;16.388;2023-07-29T19:34:35;2.25;;;2.05;;
19329;SDS011;9799;48.214;16.388;2023-07-29T19:37:59;2.63;;;2.42;;
19329;SDS011;9799;48.214;16.388;2023-07-29T19:41:25;2.63;;;2.42;;
19329;SDS011;9799;48.214;16.388;2023-07-29T19:44:47;3.05;;;2.28;;
19329;SDS011;9799;48.214;16.388;2023-07-29T19:48:09;3.28;;;2.60;;
19329;SDS011;9799;48.214;16.388;2023-07-29T19:51:31;2.80;;;2.55;;
19329;SDS011;9799;48.214;16.388;2023-07-29T19:54:52;2.50;;;2.30;;
19329;SDS011;9799;48.214;16.388;2023-07-29T19:58:16;2.40;;;2.17;;
19329;SDS011;9799;48.214;16.388;2023-07-29T20:01:38;1.73;;;1.55;;
19329;SDS011;9799;48.214;16.388;2023-07-29T20:05:00;2.30;;;2.03;;
19329;SDS011;9799;48.214;16.388;2023-07-29T20:08:23;2.45;;;2.25;;
19329;SDS011;9799;48.214;16.388;2023-07-29T20:11:45;2.33;;;2.13;;
19329;SDS011;9799;48.214;16.388;2023-07-29T20:15:09;2.47;;;2.28;;
19329;SDS011;9799;48.214;16.388;2023-07-29T20:18:32;2.50;;;2.30;;
19329;SDS011;9799;48.214;16.388;2023-07-29T20:21:54;2.55;;;2.05;;
19329;SDS011;9799;48.214;16.388;2023-07-29T20:25:17;2.63;;;2.22;;
19329;SDS011;9799;48.214;16.388;2023-07-29T20:28:38;2.33;;;2.13;;